Terminal Aerodrome Forecast
Issued by NWS

Home | Current Version | Previous Version | Text Only | Print | Product List | Glossary On
Versions: 1 2 3 4 5 6 7 8 9 10 11 12 13 14 15 16 17 18 19 20 21 22 23 24 25 26 27 28 29
345
FTUS44 KOHX 242147 AAA
TAFCKV
TAF AMD
KCKV 242147Z 2422/2518 22018G25KT P6SM SKC
     FM242300 23011G20KT 6SM -SHRA OVC040
     FM250100 24011G17KT 6SM SHRA OVC025
     FM250300 23011G17KT P6SM BKN050
     FM251200 29012G18KT P6SM OVC025
     FM251500 30014G22KT P6SM BKN050=

USA.gov is the U.S. government's official web portal to all federal, state and local government web resources and services.